createdAt,value
2018-03-23T00:01:18.547Z,8.10
2018-03-23T00:03:46.776Z,8.20
2018-03-23T00:06:15.029Z,8.20
2018-03-23T00:08:43.264Z,8.10
2018-03-23T00:11:11.485Z,8.10
2018-03-23T00:13:39.729Z,8.10
2018-03-23T00:16:07.966Z,8.20
2018-03-23T00:18:36.977Z,8.30
2018-03-23T00:21:05.224Z,8.30
2018-03-23T00:23:33.475Z,8.30
2018-03-23T00:26:01.709Z,8.30
2018-03-23T00:28:29.968Z,8.10
2018-03-23T00:30:58.955Z,8.00
2018-03-23T00:33:27.952Z,7.90
2018-03-23T00:35:56.970Z,7.70
2018-03-23T00:38:25.185Z,7.70
2018-03-23T00:40:53.417Z,7.60
2018-03-23T00:43:21.650Z,7.50
2018-03-23T00:45:49.880Z,7.30
2018-03-23T00:48:18.107Z,7.30
2018-03-23T00:50:46.420Z,7.20
2018-03-23T00:53:14.708Z,7.20
2018-03-23T00:55:42.972Z,7.30
2018-03-23T00:58:11.953Z,7.60
2018-03-23T01:00:40.965Z,7.40
2018-03-23T01:03:09.207Z,7.30
2018-03-23T01:05:37.448Z,7.20
2018-03-23T01:08:05.678Z,7.30
2018-03-23T01:10:34.784Z,7.30
2018-03-23T01:13:03.039Z,7.20
2018-03-23T01:15:32.032Z,7.50
2018-03-23T01:18:00.350Z,7.50
2018-03-23T01:20:28.622Z,7.60
2018-03-23T01:22:56.858Z,7.70
2018-03-23T01:25:25.074Z,7.60
2018-03-23T01:27:53.316Z,7.60
2018-03-23T01:30:22.307Z,7.60
2018-03-23T01:32:51.330Z,7.60
2018-03-23T01:35:19.555Z,7.60
2018-03-23T01:37:47.887Z,7.60
2018-03-23T01:40:16.104Z,7.60
2018-03-23T01:42:44.352Z,7.60
2018-03-23T01:45:12.607Z,7.40
2018-03-23T01:47:40.822Z,7.50
2018-03-23T01:50:09.042Z,7.50
2018-03-23T01:52:38.072Z,7.40
2018-03-23T01:55:06.291Z,7.40
2018-03-23T01:57:34.531Z,7.40
2018-03-23T02:00:02.770Z,7.30
2018-03-23T02:02:31.787Z,7.10
2018-03-23T02:05:00.026Z,7.10
2018-03-23T02:07:29.063Z,7.20
2018-03-23T02:09:57.302Z,7.20
2018-03-23T02:12:26.292Z,7.30
2018-03-23T02:14:55.276Z,7.20
2018-03-23T02:17:24.293Z,7.20
2018-03-23T02:19:53.294Z,7.10
2018-03-23T02:22:21.543Z,7.10
2018-03-23T02:24:49.851Z,7.20
2018-03-23T02:27:18.078Z,7.20
2018-03-23T02:29:46.330Z,7.20
2018-03-23T02:32:14.574Z,7.20
2018-03-23T02:34:42.871Z,7.20
2018-03-23T02:37:11.094Z,7.20
2018-03-23T02:39:39.352Z,7.30
2018-03-23T02:42:07.678Z,7.30
2018-03-23T02:44:35.901Z,7.30
2018-03-23T02:47:04.143Z,7.40
2018-03-23T02:49:32.405Z,7.40
2018-03-23T02:52:01.408Z,7.40
2018-03-23T02:54:29.616Z,7.30
2018-03-23T02:56:57.849Z,7.30
2018-03-23T02:59:26.092Z,7.40
2018-03-23T03:01:54.409Z,7.40
2018-03-23T03:04:22.630Z,7.30
2018-03-23T03:06:50.970Z,7.40
2018-03-23T03:09:19.226Z,7.50
2018-03-23T03:11:48.308Z,7.30
2018-03-23T03:14:16.535Z,7.30
2018-03-23T03:16:44.758Z,7.20
2018-03-23T03:19:12.995Z,7.20
2018-03-23T03:21:41.266Z,7.20
2018-03-23T03:24:09.477Z,7.30
2018-03-23T03:26:37.724Z,7.20
2018-03-23T03:29:05.945Z,7.00
2018-03-23T03:31:34.960Z,7.00
2018-03-23T03:34:03.304Z,7.00
2018-03-23T03:36:31.532Z,7.10
2018-03-23T03:38:59.752Z,7.10
2018-03-23T03:41:27.981Z,7.10
2018-03-23T03:43:56.222Z,7.10
2018-03-23T03:46:25.225Z,6.90
2018-03-23T03:48:54.254Z,6.90
2018-03-23T03:51:22.482Z,6.90
2018-03-23T03:53:51.471Z,7.00
2018-03-23T03:56:20.516Z,7.10
2018-03-23T03:58:48.749Z,7.00
2018-03-23T04:01:17.768Z,7.30
2018-03-23T04:03:45.987Z,7.20
2018-03-23T04:06:14.227Z,7.20
2018-03-23T04:08:42.464Z,7.20
2018-03-23T04:11:10.703Z,7.10
2018-03-23T04:13:38.957Z,7.20
2018-03-23T04:16:07.199Z,7.10
2018-03-23T04:18:36.190Z,7.10
2018-03-23T04:21:05.196Z,7.10
2018-03-23T04:23:33.413Z,7.00
2018-03-23T04:26:01.704Z,7.10
2018-03-23T04:28:29.890Z,7.10
2018-03-23T04:30:58.113Z,7.10
2018-03-23T04:33:26.354Z,7.20
2018-03-23T04:35:55.366Z,7.20
2018-03-23T04:38:24.374Z,7.30
2018-03-23T04:40:52.628Z,7.30
2018-03-23T04:43:21.607Z,7.30
2018-03-23T04:45:49.863Z,7.20
2018-03-23T04:48:18.110Z,7.20
2018-03-23T04:50:46.337Z,7.20
2018-03-23T04:53:15.338Z,7.10
2018-03-23T04:55:44.346Z,7.00
2018-03-23T04:58:12.593Z,7.00
2018-03-23T05:00:40.818Z,7.00
2018-03-23T05:03:09.066Z,7.00
2018-03-23T05:05:38.055Z,7.20
2018-03-23T05:08:07.081Z,7.20
2018-03-23T05:10:35.323Z,7.10
2018-03-23T05:13:04.351Z,7.20
2018-03-23T05:15:32.602Z,7.20
2018-03-23T05:18:01.619Z,7.20
2018-03-23T05:20:29.890Z,7.20
2018-03-23T05:22:58.170Z,7.20
2018-03-23T05:25:26.388Z,7.00
2018-03-23T05:27:54.658Z,7.00
2018-03-23T05:30:22.926Z,7.10
2018-03-23T05:32:51.149Z,6.90
2018-03-23T05:35:20.179Z,6.90
2018-03-23T05:37:48.405Z,6.90
2018-03-23T05:40:16.627Z,7.00
2018-03-23T05:42:44.876Z,6.90
2018-03-23T05:45:13.950Z,6.80
2018-03-23T05:47:42.139Z,6.70
2018-03-23T05:50:11.159Z,6.80
2018-03-23T05:52:39.429Z,6.70
2018-03-23T05:55:07.675Z,6.90
2018-03-23T05:57:35.929Z,6.90
2018-03-23T06:00:04.147Z,6.80
2018-03-23T06:02:33.155Z,6.90
2018-03-23T06:05:01.418Z,6.80
2018-03-23T06:07:30.399Z,7.00
2018-03-23T06:09:59.406Z,6.90
2018-03-23T06:12:27.648Z,6.90
2018-03-23T06:14:55.986Z,7.00
2018-03-23T06:17:24.218Z,7.10
2018-03-23T06:19:53.226Z,7.10
2018-03-23T06:22:21.443Z,7.10
2018-03-23T06:24:49.700Z,7.10
2018-03-23T06:27:17.918Z,7.10
2018-03-23T06:29:46.182Z,7.00
2018-03-23T06:32:14.403Z,7.00
2018-03-23T06:34:43.414Z,7.10
2018-03-23T06:37:11.669Z,7.00
2018-03-23T06:39:40.645Z,7.00
2018-03-23T06:42:08.897Z,6.90
2018-03-23T06:44:37.124Z,7.10
2018-03-23T06:47:06.197Z,7.00
2018-03-23T06:49:34.406Z,6.90
2018-03-23T06:52:02.653Z,6.90
2018-03-23T06:54:31.704Z,6.90
2018-03-23T06:56:59.963Z,6.90
2018-03-23T06:59:28.951Z,7.00
2018-03-23T07:01:57.226Z,7.00
2018-03-23T07:04:25.446Z,7.10
2018-03-23T07:06:53.727Z,7.10
2018-03-23T07:09:21.952Z,7.10
2018-03-23T07:11:50.186Z,7.10
2018-03-23T07:14:19.945Z,7.30
2018-03-23T07:16:48.159Z,7.30
2018-03-23T07:19:16.416Z,7.30
2018-03-23T07:21:44.730Z,7.30
2018-03-23T07:24:12.947Z,7.30
2018-03-23T07:26:41.169Z,7.10
2018-03-23T07:29:09.414Z,7.10
2018-03-23T07:31:37.676Z,7.10
2018-03-23T07:34:05.899Z,7.20
2018-03-23T07:36:34.124Z,7.20
2018-03-23T07:39:02.359Z,7.20
2018-03-23T07:41:30.603Z,7.20
2018-03-23T07:43:58.855Z,7.20
2018-03-23T07:46:27.101Z,7.20
2018-03-23T07:48:56.865Z,7.20
2018-03-23T07:51:25.077Z,7.20
2018-03-23T07:53:53.306Z,7.20
2018-03-23T07:56:21.566Z,7.30
2018-03-23T07:58:49.939Z,7.50
2018-03-23T08:01:18.175Z,7.50
2018-03-23T08:03:46.494Z,7.50
2018-03-23T08:06:14.786Z,7.50
2018-03-23T08:08:43.002Z,7.50
2018-03-23T08:11:11.320Z,7.40
2018-03-23T08:13:39.548Z,7.50
2018-03-23T08:16:07.774Z,7.60
2018-03-23T08:18:36.059Z,7.60
2018-03-23T08:21:04.312Z,7.70
2018-03-23T08:23:33.337Z,7.70
2018-03-23T08:26:01.594Z,7.60
2018-03-23T08:28:29.822Z,7.70
2018-03-23T08:30:58.042Z,7.60
2018-03-23T08:33:26.334Z,7.60
2018-03-23T08:35:54.553Z,7.50
2018-03-23T08:38:22.798Z,7.50
2018-03-23T08:40:51.050Z,7.50
2018-03-23T08:43:19.298Z,7.50
2018-03-23T08:45:48.286Z,7.50
2018-03-23T08:48:16.531Z,7.50
2018-03-23T08:50:44.788Z,7.60
2018-03-23T08:53:13.044Z,7.70
2018-03-23T08:55:41.274Z,7.70
2018-03-23T08:58:09.514Z,7.80
2018-03-23T09:00:37.780Z,7.80
2018-03-23T09:03:06.046Z,7.90
2018-03-23T09:05:35.079Z,7.90
2018-03-23T09:08:03.354Z,7.90
2018-03-23T09:10:31.612Z,8.00
2018-03-23T09:13:00.629Z,8.10
2018-03-23T09:15:28.881Z,8.10
2018-03-23T09:17:57.114Z,8.10
2018-03-23T09:20:25.418Z,8.10
2018-03-23T09:22:54.408Z,8.10
2018-03-23T09:25:23.445Z,8.10
2018-03-23T09:27:51.697Z,8.10
2018-03-23T09:30:19.938Z,8.20
2018-03-23T09:32:48.925Z,8.30
2018-03-23T09:35:17.947Z,8.30
2018-03-23T09:37:46.177Z,8.30
2018-03-23T09:40:14.506Z,8.30
2018-03-23T09:42:42.735Z,8.30
2018-03-23T09:45:12.486Z,8.30
2018-03-23T09:47:40.755Z,8.30
2018-03-23T09:50:09.749Z,8.40
2018-03-23T09:52:38.742Z,8.40
2018-03-23T09:55:07.755Z,8.30
2018-03-23T09:57:36.019Z,8.30
2018-03-23T10:00:04.993Z,8.30
2018-03-23T10:02:34.019Z,8.30
2018-03-23T10:05:02.323Z,8.20
2018-03-23T10:07:30.574Z,8.30
2018-03-23T10:09:58.872Z,8.20
2018-03-23T10:12:27.838Z,8.30
2018-03-23T10:14:56.082Z,8.30
2018-03-23T10:17:24.306Z,8.30
2018-03-23T10:19:52.558Z,8.30
2018-03-23T10:22:20.810Z,8.30
2018-03-23T10:24:49.026Z,8.30
2018-03-23T10:27:17.289Z,8.30
2018-03-23T10:29:45.568Z,8.30
2018-03-23T10:32:13.827Z,8.30
2018-03-23T10:34:42.831Z,8.30
2018-03-23T10:37:11.937Z,8.30
2018-03-23T10:39:40.164Z,8.30
2018-03-23T10:42:09.935Z,8.30
2018-03-23T10:44:38.206Z,8.30
2018-03-23T10:47:06.490Z,8.30
2018-03-23T10:49:34.740Z,8.30
2018-03-23T10:52:03.716Z,8.40
2018-03-23T10:54:32.739Z,8.40
2018-03-23T10:57:01.002Z,8.30
2018-03-23T10:59:29.996Z,8.30
2018-03-23T11:02:04.681Z,8.30
2018-03-23T11:04:32.905Z,8.30
2018-03-23T11:07:01.963Z,8.40
2018-03-23T11:09:30.291Z,8.40
2018-03-23T11:11:58.522Z,8.50
2018-03-23T11:14:26.838Z,8.50
2018-03-23T11:16:55.067Z,8.50
2018-03-23T11:19:23.318Z,8.50
2018-03-23T11:21:51.545Z,8.60
2018-03-23T11:24:20.538Z,8.60
2018-03-23T11:26:49.549Z,8.50
2018-03-23T11:29:17.934Z,8.50
2018-03-23T11:31:46.160Z,8.60
2018-03-23T11:34:14.494Z,8.60
2018-03-23T11:36:42.762Z,8.70
2018-03-23T11:39:10.979Z,8.60
2018-03-23T11:41:39.247Z,8.60
2018-03-23T11:44:07.467Z,8.60
2018-03-23T11:46:36.480Z,8.80
2018-03-23T11:49:04.764Z,8.70
2018-03-23T11:51:32.992Z,8.80
2018-03-23T11:54:01.294Z,8.80
2018-03-23T11:56:30.278Z,8.80
2018-03-23T11:58:59.300Z,8.90
2018-03-23T12:01:27.543Z,8.80
2018-03-23T12:03:57.286Z,8.80
2018-03-23T12:06:25.508Z,8.80
2018-03-23T12:08:53.792Z,8.80
2018-03-23T12:11:22.032Z,8.80
2018-03-23T12:13:50.251Z,8.80
2018-03-23T12:16:20.101Z,8.90
2018-03-23T12:18:48.333Z,8.90
2018-03-23T12:21:16.568Z,9.00
2018-03-23T12:23:44.851Z,9.00
2018-03-23T12:26:13.061Z,9.00
2018-03-23T12:28:41.333Z,9.10
2018-03-23T12:31:09.565Z,9.10
2018-03-23T12:33:37.851Z,9.10
2018-03-23T12:36:06.101Z,9.10
2018-03-23T12:38:35.122Z,9.10
2018-03-23T12:41:03.374Z,9.00
2018-03-23T12:43:31.612Z,9.00
2018-03-23T12:45:59.948Z,9.00
2018-03-23T12:48:28.170Z,9.00
2018-03-23T12:50:56.504Z,9.00
2018-03-23T12:53:24.741Z,9.00
2018-03-23T12:55:53.770Z,9.00
2018-03-23T12:58:22.028Z,9.00
2018-03-23T13:00:51.044Z,8.90
2018-03-23T13:03:19.251Z,8.90
2018-03-23T13:05:47.504Z,9.00
2018-03-23T13:08:15.734Z,9.00
2018-03-23T13:10:44.749Z,9.10
2018-03-23T13:13:12.980Z,9.10
2018-03-23T13:15:41.218Z,9.20
2018-03-23T13:18:09.472Z,9.30
2018-03-23T13:20:38.499Z,9.30
2018-03-23T13:23:06.766Z,9.30
2018-03-23T13:25:34.997Z,9.30
2018-03-23T13:28:03.238Z,9.20
2018-03-23T13:30:31.759Z,9.10
2018-03-23T13:32:59.984Z,9.00
2018-03-23T13:35:28.228Z,8.90
2018-03-23T13:37:56.465Z,9.00
2018-03-23T13:40:24.707Z,9.00
2018-03-23T13:42:52.936Z,8.90
2018-03-23T13:45:23.177Z,9.00
2018-03-23T13:47:51.412Z,9.00
2018-03-23T13:50:19.784Z,9.10
2018-03-23T13:52:48.735Z,9.20
2018-03-23T13:55:16.979Z,9.20
2018-03-23T13:57:45.262Z,9.20
2018-03-23T14:00:20.931Z,9.20
2018-03-23T14:02:49.233Z,9.20
2018-03-23T14:05:17.499Z,9.20
2018-03-23T14:07:45.747Z,9.20
2018-03-23T14:10:14.742Z,9.30
2018-03-23T14:12:43.778Z,9.30
2018-03-23T14:15:11.991Z,9.20
2018-03-23T14:17:40.361Z,9.30
2018-03-23T14:20:08.527Z,9.30
2018-03-23T14:22:36.770Z,9.30
2018-03-23T14:25:04.981Z,9.40
2018-03-23T14:27:33.212Z,9.40
2018-03-23T14:30:01.474Z,9.40
2018-03-23T14:32:30.464Z,9.40
2018-03-23T14:34:59.571Z,9.40
2018-03-23T14:37:27.791Z,9.40
2018-03-23T14:39:56.040Z,9.30
2018-03-23T14:42:24.253Z,9.30
2018-03-23T14:44:52.495Z,9.40
2018-03-23T14:47:20.757Z,9.30
2018-03-23T14:49:49.022Z,9.30
2018-03-23T14:52:17.283Z,9.30
2018-03-23T14:54:45.587Z,9.20
2018-03-23T14:57:13.858Z,9.20
2018-03-23T14:59:42.077Z,9.20
2018-03-23T15:02:10.305Z,9.30
2018-03-23T15:04:38.579Z,9.20
2018-03-23T15:07:07.578Z,9.20
2018-03-23T15:09:35.862Z,9.20
2018-03-23T15:12:04.119Z,9.20
2018-03-23T15:14:33.134Z,9.20
2018-03-23T15:17:01.353Z,9.20
2018-03-23T15:19:29.904Z,9.20
2018-03-23T15:21:58.172Z,9.20
2018-03-23T15:24:26.421Z,9.20
2018-03-23T15:26:56.426Z,9.30
2018-03-23T15:29:24.743Z,9.20
2018-03-23T15:31:53.031Z,9.20
2018-03-23T15:34:21.272Z,9.20
2018-03-23T15:36:50.298Z,9.10
2018-03-23T15:39:19.286Z,9.10
2018-03-23T15:41:47.572Z,9.10
2018-03-23T15:44:15.796Z,9.00
2018-03-23T15:46:44.036Z,9.00
2018-03-23T15:49:12.285Z,9.00
2018-03-23T15:51:40.513Z,9.00
2018-03-23T15:54:08.729Z,9.00
2018-03-23T15:56:36.975Z,9.00
2018-03-23T15:59:05.211Z,9.10
2018-03-23T16:01:33.456Z,9.10
2018-03-23T16:04:01.672Z,9.10
2018-03-23T16:06:29.915Z,9.10
2018-03-23T16:08:58.171Z,9.10
2018-03-23T16:11:27.160Z,9.00
2018-03-23T16:13:55.406Z,9.00
2018-03-23T16:16:23.678Z,9.00
2018-03-23T16:18:51.938Z,9.00
2018-03-23T16:21:20.173Z,8.90
2018-03-23T16:23:49.158Z,9.00
2018-03-23T16:26:18.170Z,8.90
2018-03-23T16:28:46.407Z,8.90
2018-03-23T16:31:14.631Z,8.90
2018-03-23T16:33:42.898Z,9.00
2018-03-23T16:36:11.127Z,8.90
2018-03-23T16:38:39.357Z,9.00
2018-03-23T16:41:07.633Z,8.90
2018-03-23T16:43:35.911Z,8.90
2018-03-23T16:46:04.148Z,8.80
2018-03-23T16:48:32.457Z,8.80
2018-03-23T16:51:00.748Z,8.80
2018-03-23T16:53:28.987Z,8.80
2018-03-23T16:55:57.987Z,8.80
2018-03-23T16:58:27.011Z,8.80
2018-03-23T17:00:55.298Z,8.80
2018-03-23T17:03:23.522Z,8.80
2018-03-23T17:05:51.843Z,8.80
2018-03-23T17:08:20.076Z,8.70
2018-03-23T17:10:48.342Z,8.70
2018-03-23T17:13:16.566Z,8.60
2018-03-23T17:15:44.795Z,8.60
2018-03-23T17:18:13.060Z,8.60
2018-03-23T17:20:41.318Z,8.50
2018-03-23T17:23:09.629Z,8.60
2018-03-23T17:25:37.847Z,8.50
2018-03-23T17:28:06.146Z,8.60
2018-03-23T17:30:34.367Z,8.60
2018-03-23T17:33:03.398Z,8.50
2018-03-23T17:35:31.628Z,8.50
2018-03-23T17:37:59.885Z,8.50
2018-03-23T17:40:28.127Z,8.50
2018-03-23T17:42:56.354Z,8.50
2018-03-23T17:45:26.094Z,8.50
2018-03-23T17:47:54.342Z,8.50
2018-03-23T17:50:22.662Z,8.50
2018-03-23T17:52:50.881Z,8.50
2018-03-23T17:55:20.663Z,8.40
2018-03-23T17:57:48.922Z,8.40
2018-03-23T18:00:17.182Z,8.40
2018-03-23T18:02:46.172Z,8.30
2018-03-23T18:05:15.185Z,8.30
2018-03-23T18:07:43.401Z,8.30
2018-03-23T18:10:11.665Z,8.20
2018-03-23T18:12:39.881Z,8.20
2018-03-23T18:15:08.870Z,8.20
2018-03-23T18:17:37.138Z,8.20
2018-03-23T18:20:05.384Z,8.20
2018-03-23T18:22:33.630Z,8.10
2018-03-23T18:25:01.899Z,8.10
2018-03-23T18:27:30.903Z,8.00
2018-03-23T18:29:59.122Z,8.00
2018-03-23T18:32:27.474Z,8.00
2018-03-23T18:34:55.722Z,8.00
2018-03-23T18:37:24.735Z,8.00
2018-03-23T18:39:52.995Z,8.00
2018-03-23T18:42:21.221Z,8.00
2018-03-23T18:44:49.439Z,8.00
2018-03-23T18:47:17.706Z,8.10
2018-03-23T18:49:46.707Z,8.10
2018-03-23T18:52:15.718Z,8.00
2018-03-23T18:54:43.941Z,8.00
2018-03-23T18:57:12.200Z,8.00
2018-03-23T18:59:40.458Z,8.00
2018-03-23T19:02:08.685Z,8.00
2018-03-23T19:04:36.910Z,8.00
2018-03-23T19:07:05.153Z,8.00
2018-03-23T19:09:34.161Z,8.00
2018-03-23T19:12:02.405Z,7.90
2018-03-23T19:14:30.630Z,7.90
2018-03-23T19:16:58.871Z,7.90
2018-03-23T19:19:27.914Z,8.00
2018-03-23T19:21:56.178Z,7.90
2018-03-23T19:24:24.403Z,8.00
2018-03-23T19:26:52.650Z,8.10
2018-03-23T19:29:20.891Z,8.10
2018-03-23T19:31:49.166Z,8.10
2018-03-23T19:34:17.412Z,8.00
2018-03-23T19:36:45.734Z,7.90
2018-03-23T19:39:13.987Z,7.80
2018-03-23T19:41:42.987Z,7.80
2018-03-23T19:44:11.253Z,7.70
2018-03-23T19:46:40.277Z,7.70
2018-03-23T19:49:08.536Z,7.60
2018-03-23T19:51:36.762Z,7.70
2018-03-23T19:54:04.999Z,7.80
2018-03-23T19:56:33.285Z,7.80
2018-03-23T19:59:02.282Z,7.70
2018-03-23T20:01:30.532Z,7.70
2018-03-23T20:03:58.778Z,7.70
2018-03-23T20:06:27.093Z,7.80
2018-03-23T20:08:55.313Z,7.70
2018-03-23T20:11:23.541Z,7.70
2018-03-23T20:13:57.545Z,7.70
2018-03-23T20:16:25.831Z,7.70
2018-03-23T20:18:54.073Z,7.70
2018-03-23T20:21:22.295Z,7.70
2018-03-23T20:23:50.557Z,7.70
2018-03-23T20:26:18.771Z,7.70
2018-03-23T20:28:47.021Z,7.70
2018-03-23T20:31:15.689Z,7.80
2018-03-23T20:33:44.688Z,7.70
2018-03-23T20:36:12.931Z,7.60
2018-03-23T20:38:41.173Z,7.70
2018-03-23T20:41:09.401Z,7.70
2018-03-23T20:43:38.419Z,7.60
2018-03-23T20:46:06.634Z,7.50
2018-03-23T20:48:34.886Z,7.60
2018-03-23T20:51:03.150Z,7.60
2018-03-23T20:53:31.405Z,7.50
2018-03-23T20:55:59.715Z,7.50
2018-03-23T20:58:27.960Z,7.60
2018-03-23T21:00:57.062Z,7.50
2018-03-23T21:03:25.289Z,7.50
2018-03-23T21:05:53.532Z,7.60
2018-03-23T21:08:21.785Z,7.60
2018-03-23T21:10:50.009Z,7.60
2018-03-23T21:13:18.249Z,7.60
2018-03-23T21:15:46.496Z,7.60
2018-03-23T21:18:15.493Z,7.70
2018-03-23T21:20:44.523Z,7.70
2018-03-23T21:23:12.760Z,7.70
2018-03-23T21:25:41.756Z,7.70
2018-03-23T21:28:10.770Z,7.60
2018-03-23T21:30:38.994Z,7.60
2018-03-23T21:33:07.222Z,7.60
2018-03-23T21:35:35.827Z,7.50
2018-03-23T21:38:04.256Z,7.50
2018-03-23T21:40:32.494Z,7.50
2018-03-23T21:43:00.716Z,7.40
2018-03-23T21:45:29.753Z,7.30
2018-03-23T21:47:57.973Z,7.30
2018-03-23T21:50:26.249Z,7.30
2018-03-23T21:52:54.467Z,7.30
2018-03-23T21:55:24.295Z,7.30
2018-03-23T21:57:52.547Z,7.30
2018-03-23T22:00:20.817Z,7.30
2018-03-23T22:02:49.078Z,7.30
2018-03-23T22:05:18.095Z,7.20
2018-03-23T22:07:46.355Z,7.20
2018-03-23T22:10:15.459Z,7.20
2018-03-23T22:12:44.474Z,7.20
2018-03-23T22:15:12.719Z,7.20
2018-03-23T22:17:41.705Z,7.30
2018-03-23T22:20:10.723Z,7.30
2018-03-23T22:22:38.964Z,7.30
2018-03-23T22:25:07.222Z,7.20
2018-03-23T22:27:35.448Z,7.20
2018-03-23T22:30:03.705Z,7.10
2018-03-23T22:32:32.724Z,7.10
2018-03-23T22:35:00.950Z,7.10
2018-03-23T22:37:29.177Z,7.10
2018-03-23T22:39:57.427Z,7.20
2018-03-23T22:42:26.493Z,7.30
2018-03-23T22:44:54.750Z,7.30
2018-03-23T22:47:22.996Z,7.30
2018-03-23T22:49:52.042Z,7.20
2018-03-23T22:52:20.273Z,7.20
2018-03-23T22:54:48.546Z,7.20
2018-03-23T22:57:16.795Z,7.20
2018-03-23T22:59:45.014Z,7.20
2018-03-23T23:02:13.265Z,7.20
2018-03-23T23:04:41.498Z,7.20
2018-03-23T23:07:09.840Z,7.20
2018-03-23T23:09:38.068Z,7.20
2018-03-23T23:12:06.405Z,7.20
2018-03-23T23:14:34.682Z,7.20
2018-03-23T23:17:02.947Z,7.20
2018-03-23T23:19:31.248Z,7.20
2018-03-23T23:21:59.538Z,7.20
2018-03-23T23:24:27.781Z,7.20
2018-03-23T23:26:56.059Z,7.20
2018-03-23T23:29:24.306Z,7.10
2018-03-23T23:31:52.575Z,7.10
2018-03-23T23:34:21.682Z,7.00
2018-03-23T23:36:50.776Z,7.00
2018-03-23T23:39:19.784Z,7.20
2018-03-23T23:41:48.147Z,7.10
2018-03-23T23:44:16.441Z,7.20
2018-03-23T23:46:44.791Z,7.20
2018-03-23T23:49:13.824Z,7.20
2018-03-23T23:51:42.174Z,7.10
2018-03-23T23:54:11.253Z,7.10
2018-03-23T23:56:40.493Z,7.10
2018-03-23T23:59:08.797Z,7.10
